North Island Nas /Halsey Field/ Information

FAA: NZY - ICAO: KNZY

North Island Nas /Halsey Field/ (Airport) Location

State California
County San Diego
City San Diego
North Island Nas /Halsey Field/ (Airport) is 3 miles southwest of San Diego, CA.
Latitude 32-41-53.5060N
Longitude 117-12-47.1960W
Elevation 25ft

North Island Nas /Halsey Field/ METARs

METAR KNZY 260952Z 27005KT 10SM BKN012 17/13 A2991 RMK AO2 SLP127 T01670133
Altimeter 29.91"
Temperature 16.7°C (62.1°F)
Wind 270° at 5KT
Clouds broken at 1,200ft
Visibility 10.0mi
Time observed: 2022-05-26T09:52:00Z

North Island Nas /Halsey Field/ (Airport) Details

Status Operational
Activation May 1941
Ownership Military - Navy
Usage Private
Chart LOS ANGELES
ATC on-site Yes
Beacon schedule sunset-sunrise
Beacon color split clear green

North Island Nas /Halsey Field/ (Airport) Contacts

Owner US NAVY
Owner address OCEANOGRAPHIC OFC - CODE 3142, WASHINGTON, DC 20373
Owner phone N/A
Manager COMMANDING OFFICER
Manager address MARINE CORPS AIR STATION MIRAMAR, SAN DIEGO, CA 92145
Manager phone N/A

North Island Nas /Halsey Field/ Radio Frequencies

North Island Nas /Halsey Field/ (Airport) Radio Frequencies

UNICOM N/A
Common traffic advisory frequency (CTAF) N/A